sensor_id;sensor_type;location;lat;lon;timestamp;P1;durP1;ratioP1;P2;durP2;ratioP2
74614;SDS011;63121;51.458;-0.110;2023-03-31T00:01:33;7.30;;;1.50;;
74614;SDS011;63121;51.458;-0.110;2023-03-31T00:03:59;9.75;;;1.30;;
74614;SDS011;63121;51.458;-0.110;2023-03-31T00:06:32;8.18;;;1.63;;
74614;SDS011;63121;51.458;-0.110;2023-03-31T00:09:03;10.60;;;1.63;;
74614;SDS011;63121;51.458;-0.110;2023-03-31T00:11:29;13.82;;;2.03;;
74614;SDS011;63121;51.458;-0.110;2023-03-31T00:13:55;11.90;;;2.00;;
74614;SDS011;63121;51.458;-0.110;2023-03-31T00:16:20;13.23;;;2.10;;
74614;SDS011;63121;51.458;-0.110;2023-03-31T00:18:46;11.18;;;1.70;;
74614;SDS011;63121;51.458;-0.110;2023-03-31T00:21:16;9.32;;;1.45;;
74614;SDS011;63121;51.458;-0.110;2023-03-31T00:23:49;9.45;;;1.33;;
74614;SDS011;63121;51.458;-0.110;2023-03-31T00:26:19;9.05;;;1.65;;
74614;SDS011;63121;51.458;-0.110;2023-03-31T00:28:46;8.18;;;1.65;;
74614;SDS011;63121;51.458;-0.110;2023-03-31T00:31:12;11.50;;;1.80;;
74614;SDS011;63121;51.458;-0.110;2023-03-31T00:33:37;6.22;;;1.35;;
74614;SDS011;63121;51.458;-0.110;2023-03-31T00:36:02;12.90;;;1.87;;
74614;SDS011;63121;51.458;-0.110;2023-03-31T00:38:30;11.00;;;1.75;;
74614;SDS011;63121;51.458;-0.110;2023-03-31T00:40:56;8.98;;;1.40;;
74614;SDS011;63121;51.458;-0.110;2023-03-31T00:43:26;8.07;;;1.65;;
74614;SDS011;63121;51.458;-0.110;2023-03-31T00:46:04;9.68;;;1.55;;
74614;SDS011;63121;51.458;-0.110;2023-03-31T00:48:31;8.88;;;1.42;;
74614;SDS011;63121;51.458;-0.110;2023-03-31T00:50:57;9.93;;;1.50;;
74614;SDS011;63121;51.458;-0.110;2023-03-31T00:53:27;11.25;;;1.33;;
74614;SDS011;63121;51.458;-0.110;2023-03-31T00:55:58;11.82;;;1.50;;
74614;SDS011;63121;51.458;-0.110;2023-03-31T00:58:28;10.30;;;1.45;;
74614;SDS011;63121;51.458;-0.110;2023-03-31T01:00:57;10.65;;;1.92;;
74614;SDS011;63121;51.458;-0.110;2023-03-31T01:03:27;10.43;;;1.88;;
74614;SDS011;63121;51.458;-0.110;2023-03-31T01:05:58;8.52;;;1.73;;
74614;SDS011;63121;51.458;-0.110;2023-03-31T01:08:27;7.07;;;1.63;;
74614;SDS011;63121;51.458;-0.110;2023-03-31T01:10:54;9.02;;;1.23;;
74614;SDS011;63121;51.458;-0.110;2023-03-31T01:13:22;9.90;;;1.42;;
74614;SDS011;63121;51.458;-0.110;2023-03-31T01:15:48;10.38;;;1.40;;
74614;SDS011;63121;51.458;-0.110;2023-03-31T01:18:14;8.75;;;1.27;;
74614;SDS011;63121;51.458;-0.110;2023-03-31T01:43:48;5.70;;;0.98;;
74614;SDS011;63121;51.458;-0.110;2023-03-31T01:46:27;5.28;;;1.40;;
74614;SDS011;63121;51.458;-0.110;2023-03-31T01:49:02;8.00;;;1.67;;
74614;SDS011;63121;51.458;-0.110;2023-03-31T01:52:15;6.07;;;1.10;;
74614;SDS011;63121;51.458;-0.110;2023-03-31T01:54:26;9.82;;;1.38;;
74614;SDS011;63121;51.458;-0.110;2023-03-31T01:56:59;10.38;;;1.50;;
74614;SDS011;63121;51.458;-0.110;2023-03-31T01:59:48;7.40;;;1.23;;
74614;SDS011;63121;51.458;-0.110;2023-03-31T02:02:22;13.00;;;1.80;;
74614;SDS011;63121;51.458;-0.110;2023-03-31T02:04:56;8.35;;;1.83;;
74614;SDS011;63121;51.458;-0.110;2023-03-31T02:07:33;7.20;;;1.23;;
74614;SDS011;63121;51.458;-0.110;2023-03-31T02:10:03;7.65;;;1.63;;
74614;SDS011;63121;51.458;-0.110;2023-03-31T02:12:32;12.98;;;1.95;;
74614;SDS011;63121;51.458;-0.110;2023-03-31T02:15:00;8.18;;;1.70;;
74614;SDS011;63121;51.458;-0.110;2023-03-31T02:17:29;14.45;;;1.58;;
74614;SDS011;63121;51.458;-0.110;2023-03-31T02:19:57;10.15;;;1.55;;
74614;SDS011;63121;51.458;-0.110;2023-03-31T02:22:33;10.88;;;2.10;;
74614;SDS011;63121;51.458;-0.110;2023-03-31T02:25:01;7.88;;;1.60;;
74614;SDS011;63121;51.458;-0.110;2023-03-31T02:27:30;11.00;;;2.40;;
74614;SDS011;63121;51.458;-0.110;2023-03-31T02:29:59;12.27;;;1.85;;
74614;SDS011;63121;51.458;-0.110;2023-03-31T02:35:01;8.20;;;1.60;;
74614;SDS011;63121;51.458;-0.110;2023-03-31T02:37:28;10.48;;;1.67;;
74614;SDS011;63121;51.458;-0.110;2023-03-31T02:39:55;15.82;;;2.78;;
74614;SDS011;63121;51.458;-0.110;2023-03-31T02:42:24;15.30;;;2.53;;
74614;SDS011;63121;51.458;-0.110;2023-03-31T02:44:49;10.27;;;1.77;;
74614;SDS011;63121;51.458;-0.110;2023-03-31T02:47:15;9.90;;;1.58;;
74614;SDS011;63121;51.458;-0.110;2023-03-31T02:49:45;16.25;;;1.98;;
74614;SDS011;63121;51.458;-0.110;2023-03-31T03:04:02;9.95;;;2.00;;
74614;SDS011;63121;51.458;-0.110;2023-03-31T03:14:54;18.77;;;2.30;;
74614;SDS011;63121;51.458;-0.110;2023-03-31T03:17:25;16.08;;;2.63;;
74614;SDS011;63121;51.458;-0.110;2023-03-31T03:19:55;13.88;;;2.60;;
74614;SDS011;63121;51.458;-0.110;2023-03-31T03:22:22;17.30;;;2.90;;
74614;SDS011;63121;51.458;-0.110;2023-03-31T03:24:48;17.98;;;2.45;;
74614;SDS011;63121;51.458;-0.110;2023-03-31T03:27:13;21.10;;;3.53;;
74614;SDS011;63121;51.458;-0.110;2023-03-31T03:29:39;18.52;;;2.47;;
74614;SDS011;63121;51.458;-0.110;2023-03-31T03:32:05;13.20;;;2.42;;
74614;SDS011;63121;51.458;-0.110;2023-03-31T03:34:31;19.60;;;2.50;;
74614;SDS011;63121;51.458;-0.110;2023-03-31T03:36:56;12.25;;;2.30;;
74614;SDS011;63121;51.458;-0.110;2023-03-31T03:39:22;13.38;;;2.83;;
74614;SDS011;63121;51.458;-0.110;2023-03-31T03:41:47;18.02;;;2.30;;
74614;SDS011;63121;51.458;-0.110;2023-03-31T03:44:12;14.50;;;2.93;;
74614;SDS011;63121;51.458;-0.110;2023-03-31T03:46:38;16.03;;;2.33;;
74614;SDS011;63121;51.458;-0.110;2023-03-31T03:49:03;15.83;;;2.70;;
74614;SDS011;63121;51.458;-0.110;2023-03-31T03:51:28;12.87;;;2.63;;
74614;SDS011;63121;51.458;-0.110;2023-03-31T03:53:54;12.25;;;2.30;;
74614;SDS011;63121;51.458;-0.110;2023-03-31T03:56:19;22.48;;;2.95;;
74614;SDS011;63121;51.458;-0.110;2023-03-31T03:58:46;11.82;;;2.20;;
74614;SDS011;63121;51.458;-0.110;2023-03-31T04:01:11;11.32;;;1.90;;
74614;SDS011;63121;51.458;-0.110;2023-03-31T04:03:36;12.73;;;2.50;;
74614;SDS011;63121;51.458;-0.110;2023-03-31T04:06:02;12.93;;;2.10;;
74614;SDS011;63121;51.458;-0.110;2023-03-31T04:08:27;15.88;;;2.00;;
74614;SDS011;63121;51.458;-0.110;2023-03-31T04:10:52;15.10;;;1.93;;
74614;SDS011;63121;51.458;-0.110;2023-03-31T04:13:18;17.08;;;2.60;;
74614;SDS011;63121;51.458;-0.110;2023-03-31T04:15:44;18.52;;;2.17;;
74614;SDS011;63121;51.458;-0.110;2023-03-31T04:18:10;17.08;;;2.90;;
74614;SDS011;63121;51.458;-0.110;2023-03-31T04:23:09;19.60;;;2.55;;
74614;SDS011;63121;51.458;-0.110;2023-03-31T04:25:34;16.50;;;2.40;;
74614;SDS011;63121;51.458;-0.110;2023-03-31T04:28:02;18.65;;;2.55;;
74614;SDS011;63121;51.458;-0.110;2023-03-31T04:30:31;27.67;;;2.53;;
74614;SDS011;63121;51.458;-0.110;2023-03-31T04:32:57;17.83;;;2.60;;
74614;SDS011;63121;51.458;-0.110;2023-03-31T04:35:25;20.17;;;3.22;;
74614;SDS011;63121;51.458;-0.110;2023-03-31T04:38:02;18.70;;;3.05;;
74614;SDS011;63121;51.458;-0.110;2023-03-31T04:40:27;12.25;;;2.25;;
74614;SDS011;63121;51.458;-0.110;2023-03-31T04:42:53;15.20;;;2.47;;
74614;SDS011;63121;51.458;-0.110;2023-03-31T04:45:18;16.67;;;2.97;;
74614;SDS011;63121;51.458;-0.110;2023-03-31T04:47:43;15.80;;;2.37;;
74614;SDS011;63121;51.458;-0.110;2023-03-31T04:50:09;19.35;;;2.55;;
74614;SDS011;63121;51.458;-0.110;2023-03-31T04:52:35;12.45;;;2.75;;
74614;SDS011;63121;51.458;-0.110;2023-03-31T04:55:01;17.48;;;2.60;;
74614;SDS011;63121;51.458;-0.110;2023-03-31T04:57:26;15.43;;;2.20;;
74614;SDS011;63121;51.458;-0.110;2023-03-31T04:59:51;16.57;;;2.50;;
74614;SDS011;63121;51.458;-0.110;2023-03-31T05:02:17;15.93;;;2.30;;
74614;SDS011;63121;51.458;-0.110;2023-03-31T05:04:47;16.15;;;2.28;;
74614;SDS011;63121;51.458;-0.110;2023-03-31T05:07:13;20.65;;;2.65;;
74614;SDS011;63121;51.458;-0.110;2023-03-31T05:09:39;15.73;;;1.77;;
74614;SDS011;63121;51.458;-0.110;2023-03-31T05:12:04;13.95;;;2.00;;
74614;SDS011;63121;51.458;-0.110;2023-03-31T05:14:30;12.68;;;1.95;;
74614;SDS011;63121;51.458;-0.110;2023-03-31T05:16:55;13.73;;;2.17;;
74614;SDS011;63121;51.458;-0.110;2023-03-31T05:19:21;11.15;;;1.80;;
74614;SDS011;63121;51.458;-0.110;2023-03-31T05:21:47;11.10;;;2.03;;
74614;SDS011;63121;51.458;-0.110;2023-03-31T05:24:13;13.32;;;1.92;;
74614;SDS011;63121;51.458;-0.110;2023-03-31T05:26:38;16.65;;;2.22;;
74614;SDS011;63121;51.458;-0.110;2023-03-31T05:29:05;15.15;;;2.13;;
74614;SDS011;63121;51.458;-0.110;2023-03-31T05:31:30;14.02;;;1.77;;
74614;SDS011;63121;51.458;-0.110;2023-03-31T05:33:56;15.10;;;2.10;;
74614;SDS011;63121;51.458;-0.110;2023-03-31T05:36:21;8.75;;;1.52;;
74614;SDS011;63121;51.458;-0.110;2023-03-31T05:38:47;13.48;;;1.48;;
74614;SDS011;63121;51.458;-0.110;2023-03-31T05:41:13;9.90;;;1.40;;
74614;SDS011;63121;51.458;-0.110;2023-03-31T05:43:39;15.85;;;1.77;;
74614;SDS011;63121;51.458;-0.110;2023-03-31T05:46:04;7.72;;;1.40;;
74614;SDS011;63121;51.458;-0.110;2023-03-31T05:48:30;12.48;;;1.70;;
74614;SDS011;63121;51.458;-0.110;2023-03-31T05:50:59;8.30;;;1.50;;
74614;SDS011;63121;51.458;-0.110;2023-03-31T05:53:25;6.90;;;1.15;;
74614;SDS011;63121;51.458;-0.110;2023-03-31T05:55:58;7.85;;;1.83;;
74614;SDS011;63121;51.458;-0.110;2023-03-31T05:58:26;10.25;;;1.70;;
74614;SDS011;63121;51.458;-0.110;2023-03-31T06:03:47;6.82;;;1.50;;
74614;SDS011;63121;51.458;-0.110;2023-03-31T06:06:13;9.90;;;2.08;;
74614;SDS011;63121;51.458;-0.110;2023-03-31T06:08:40;9.05;;;1.92;;
74614;SDS011;63121;51.458;-0.110;2023-03-31T06:11:07;11.50;;;1.60;;
74614;SDS011;63121;51.458;-0.110;2023-03-31T06:13:37;13.15;;;1.80;;
74614;SDS011;63121;51.458;-0.110;2023-03-31T06:16:03;11.07;;;1.83;;
74614;SDS011;63121;51.458;-0.110;2023-03-31T06:18:29;7.95;;;1.45;;
74614;SDS011;63121;51.458;-0.110;2023-03-31T06:20:56;6.03;;;1.30;;
74614;SDS011;63121;51.458;-0.110;2023-03-31T06:23:22;6.60;;;1.40;;
74614;SDS011;63121;51.458;-0.110;2023-03-31T06:25:47;9.07;;;1.70;;
74614;SDS011;63121;51.458;-0.110;2023-03-31T06:28:13;7.32;;;1.20;;
74614;SDS011;63121;51.458;-0.110;2023-03-31T06:30:38;6.43;;;1.20;;
74614;SDS011;63121;51.458;-0.110;2023-03-31T06:33:04;10.73;;;1.40;;
74614;SDS011;63121;51.458;-0.110;2023-03-31T06:35:30;9.05;;;1.60;;
74614;SDS011;63121;51.458;-0.110;2023-03-31T06:37:57;7.65;;;1.20;;
74614;SDS011;63121;51.458;-0.110;2023-03-31T06:40:22;8.20;;;1.30;;
74614;SDS011;63121;51.458;-0.110;2023-03-31T06:42:48;11.82;;;1.48;;
74614;SDS011;63121;51.458;-0.110;2023-03-31T06:45:13;12.43;;;1.58;;
74614;SDS011;63121;51.458;-0.110;2023-03-31T06:47:39;10.73;;;1.65;;
74614;SDS011;63121;51.458;-0.110;2023-03-31T06:50:07;11.60;;;2.00;;
74614;SDS011;63121;51.458;-0.110;2023-03-31T06:52:34;9.20;;;1.55;;
74614;SDS011;63121;51.458;-0.110;2023-03-31T06:55:00;8.60;;;1.50;;
74614;SDS011;63121;51.458;-0.110;2023-03-31T06:57:26;9.63;;;1.80;;
74614;SDS011;63121;51.458;-0.110;2023-03-31T06:59:53;10.63;;;1.58;;
74614;SDS011;63121;51.458;-0.110;2023-03-31T07:02:18;15.32;;;2.33;;
74614;SDS011;63121;51.458;-0.110;2023-03-31T07:04:43;11.47;;;1.87;;
74614;SDS011;63121;51.458;-0.110;2023-03-31T07:07:09;19.52;;;2.33;;
74614;SDS011;63121;51.458;-0.110;2023-03-31T07:09:35;13.23;;;2.05;;
74614;SDS011;63121;51.458;-0.110;2023-03-31T07:12:00;15.25;;;2.05;;
74614;SDS011;63121;51.458;-0.110;2023-03-31T07:14:28;11.27;;;1.85;;
74614;SDS011;63121;51.458;-0.110;2023-03-31T07:16:54;11.23;;;1.83;;
74614;SDS011;63121;51.458;-0.110;2023-03-31T07:19:19;12.37;;;1.93;;
74614;SDS011;63121;51.458;-0.110;2023-03-31T07:21:45;15.02;;;2.72;;
74614;SDS011;63121;51.458;-0.110;2023-03-31T07:24:10;14.27;;;2.15;;
74614;SDS011;63121;51.458;-0.110;2023-03-31T07:26:35;14.20;;;2.20;;
74614;SDS011;63121;51.458;-0.110;2023-03-31T07:29:01;15.00;;;2.22;;
74614;SDS011;63121;51.458;-0.110;2023-03-31T07:31:26;14.30;;;2.20;;
74614;SDS011;63121;51.458;-0.110;2023-03-31T07:33:51;16.70;;;2.63;;
74614;SDS011;63121;51.458;-0.110;2023-03-31T07:36:17;11.90;;;2.20;;
74614;SDS011;63121;51.458;-0.110;2023-03-31T07:38:43;18.08;;;2.88;;
74614;SDS011;63121;51.458;-0.110;2023-03-31T07:41:14;15.20;;;2.70;;
74614;SDS011;63121;51.458;-0.110;2023-03-31T07:43:41;15.50;;;2.40;;
74614;SDS011;63121;51.458;-0.110;2023-03-31T07:46:12;17.08;;;2.17;;
74614;SDS011;63121;51.458;-0.110;2023-03-31T07:48:38;16.50;;;2.50;;
74614;SDS011;63121;51.458;-0.110;2023-03-31T07:51:04;12.77;;;2.35;;
74614;SDS011;63121;51.458;-0.110;2023-03-31T07:53:29;15.50;;;3.38;;
74614;SDS011;63121;51.458;-0.110;2023-03-31T07:55:55;18.15;;;2.83;;
74614;SDS011;63121;51.458;-0.110;2023-03-31T07:58:20;17.00;;;2.80;;
74614;SDS011;63121;51.458;-0.110;2023-03-31T08:00:46;16.75;;;2.90;;
74614;SDS011;63121;51.458;-0.110;2023-03-31T08:03:11;17.17;;;2.30;;
74614;SDS011;63121;51.458;-0.110;2023-03-31T08:05:36;17.43;;;2.53;;
74614;SDS011;63121;51.458;-0.110;2023-03-31T08:08:02;19.53;;;2.47;;
74614;SDS011;63121;51.458;-0.110;2023-03-31T08:10:27;12.25;;;2.28;;
74614;SDS011;63121;51.458;-0.110;2023-03-31T08:12:53;20.38;;;2.65;;
74614;SDS011;63121;51.458;-0.110;2023-03-31T08:15:19;14.13;;;2.15;;
74614;SDS011;63121;51.458;-0.110;2023-03-31T08:17:45;15.35;;;2.28;;
74614;SDS011;63121;51.458;-0.110;2023-03-31T08:20:10;18.52;;;2.80;;
74614;SDS011;63121;51.458;-0.110;2023-03-31T08:22:36;14.38;;;2.38;;
74614;SDS011;63121;51.458;-0.110;2023-03-31T08:25:03;13.27;;;1.90;;
74614;SDS011;63121;51.458;-0.110;2023-03-31T08:27:37;17.33;;;3.03;;
74614;SDS011;63121;51.458;-0.110;2023-03-31T08:30:05;13.60;;;2.33;;
74614;SDS011;63121;51.458;-0.110;2023-03-31T08:32:32;13.88;;;2.20;;
74614;SDS011;63121;51.458;-0.110;2023-03-31T08:34:58;11.73;;;2.10;;
74614;SDS011;63121;51.458;-0.110;2023-03-31T08:37:24;15.77;;;2.20;;
74614;SDS011;63121;51.458;-0.110;2023-03-31T08:39:50;16.35;;;2.45;;
74614;SDS011;63121;51.458;-0.110;2023-03-31T08:42:18;14.07;;;1.98;;
74614;SDS011;63121;51.458;-0.110;2023-03-31T08:44:59;9.45;;;1.65;;
74614;SDS011;63121;51.458;-0.110;2023-03-31T08:47:30;11.85;;;1.67;;
74614;SDS011;63121;51.458;-0.110;2023-03-31T08:49:59;13.52;;;1.90;;
74614;SDS011;63121;51.458;-0.110;2023-03-31T08:52:32;16.70;;;2.30;;
74614;SDS011;63121;51.458;-0.110;2023-03-31T08:55:03;16.25;;;2.40;;
74614;SDS011;63121;51.458;-0.110;2023-03-31T08:57:36;12.98;;;2.08;;
74614;SDS011;63121;51.458;-0.110;2023-03-31T09:00:13;13.82;;;2.40;;
74614;SDS011;63121;51.458;-0.110;2023-03-31T09:16:15;12.25;;;2.13;;
74614;SDS011;63121;51.458;-0.110;2023-03-31T09:18:49;12.18;;;2.15;;
74614;SDS011;63121;51.458;-0.110;2023-03-31T09:29:20;15.68;;;1.95;;
74614;SDS011;63121;51.458;-0.110;2023-03-31T09:31:53;17.02;;;1.85;;
74614;SDS011;63121;51.458;-0.110;2023-03-31T09:34:31;9.13;;;1.88;;
74614;SDS011;63121;51.458;-0.110;2023-03-31T09:36:58;14.00;;;2.22;;
74614;SDS011;63121;51.458;-0.110;2023-03-31T09:39:23;15.82;;;2.17;;
74614;SDS011;63121;51.458;-0.110;2023-03-31T09:41:50;13.75;;;2.40;;
74614;SDS011;63121;51.458;-0.110;2023-03-31T09:44:28;15.48;;;2.17;;
74614;SDS011;63121;51.458;-0.110;2023-03-31T09:47:01;7.95;;;1.90;;
74614;SDS011;63121;51.458;-0.110;2023-03-31T09:49:30;11.80;;;2.05;;
74614;SDS011;63121;51.458;-0.110;2023-03-31T09:52:00;14.13;;;1.98;;
74614;SDS011;63121;51.458;-0.110;2023-03-31T09:54:36;10.65;;;2.20;;
74614;SDS011;63121;51.458;-0.110;2023-03-31T09:59:51;10.60;;;2.17;;
74614;SDS011;63121;51.458;-0.110;2023-03-31T10:02:24;16.67;;;1.92;;
74614;SDS011;63121;51.458;-0.110;2023-03-31T10:04:58;9.38;;;2.20;;
74614;SDS011;63121;51.458;-0.110;2023-03-31T10:07:24;12.25;;;1.73;;
74614;SDS011;63121;51.458;-0.110;2023-03-31T10:09:51;10.85;;;1.60;;
74614;SDS011;63121;51.458;-0.110;2023-03-31T10:12:19;9.52;;;1.40;;
74614;SDS011;63121;51.458;-0.110;2023-03-31T10:14:50;8.02;;;1.67;;
74614;SDS011;63121;51.458;-0.110;2023-03-31T10:17:21;14.93;;;2.63;;
74614;SDS011;63121;51.458;-0.110;2023-03-31T10:19:52;15.50;;;1.83;;
74614;SDS011;63121;51.458;-0.110;2023-03-31T10:24:46;10.37;;;1.70;;
74614;SDS011;63121;51.458;-0.110;2023-03-31T10:27:20;11.00;;;1.98;;
74614;SDS011;63121;51.458;-0.110;2023-03-31T10:29:53;11.05;;;1.35;;
74614;SDS011;63121;51.458;-0.110;2023-03-31T10:32:24;11.93;;;2.25;;
74614;SDS011;63121;51.458;-0.110;2023-03-31T10:34:55;9.60;;;1.48;;
74614;SDS011;63121;51.458;-0.110;2023-03-31T10:37:22;7.70;;;1.25;;
74614;SDS011;63121;51.458;-0.110;2023-03-31T10:40:04;9.93;;;1.50;;
74614;SDS011;63121;51.458;-0.110;2023-03-31T10:42:39;8.05;;;1.38;;
74614;SDS011;63121;51.458;-0.110;2023-03-31T10:47:54;7.88;;;1.23;;
74614;SDS011;63121;51.458;-0.110;2023-03-31T10:50:32;4.55;;;0.75;;
74614;SDS011;63121;51.458;-0.110;2023-03-31T10:55:32;3.90;;;1.00;;
74614;SDS011;63121;51.458;-0.110;2023-03-31T10:58:02;2.42;;;0.68;;
74614;SDS011;63121;51.458;-0.110;2023-03-31T11:01:11;3.78;;;0.80;;
74614;SDS011;63121;51.458;-0.110;2023-03-31T11:03:43;3.35;;;0.60;;
74614;SDS011;63121;51.458;-0.110;2023-03-31T11:06:12;3.90;;;0.60;;
74614;SDS011;63121;51.458;-0.110;2023-03-31T11:29:57;2.33;;;0.70;;
74614;SDS011;63121;51.458;-0.110;2023-03-31T11:40:46;1.73;;;0.52;;
74614;SDS011;63121;51.458;-0.110;2023-03-31T11:45:58;1.13;;;0.65;;
74614;SDS011;63121;51.458;-0.110;2023-03-31T11:51:15;4.07;;;0.68;;
74614;SDS011;63121;51.458;-0.110;2023-03-31T11:53:48;2.92;;;0.70;;
74614;SDS011;63121;51.458;-0.110;2023-03-31T11:56:16;3.03;;;0.77;;
74614;SDS011;63121;51.458;-0.110;2023-03-31T11:58:44;2.35;;;0.90;;
74614;SDS011;63121;51.458;-0.110;2023-03-31T12:01:15;1.77;;;0.85;;
74614;SDS011;63121;51.458;-0.110;2023-03-31T12:06:17;1.05;;;0.52;;
74614;SDS011;63121;51.458;-0.110;2023-03-31T12:09:00;1.30;;;0.60;;
74614;SDS011;63121;51.458;-0.110;2023-03-31T12:14:08;2.38;;;0.88;;
74614;SDS011;63121;51.458;-0.110;2023-03-31T12:19:16;1.63;;;0.70;;
74614;SDS011;63121;51.458;-0.110;2023-03-31T12:22:04;1.85;;;0.80;;
74614;SDS011;63121;51.458;-0.110;2023-03-31T12:24:32;2.35;;;0.85;;
74614;SDS011;63121;51.458;-0.110;2023-03-31T12:27:12;1.83;;;0.80;;
74614;SDS011;63121;51.458;-0.110;2023-03-31T12:30:09;2.60;;;0.60;;
74614;SDS011;63121;51.458;-0.110;2023-03-31T12:32:55;2.03;;;0.60;;
74614;SDS011;63121;51.458;-0.110;2023-03-31T12:35:26;1.77;;;0.80;;
74614;SDS011;63121;51.458;-0.110;2023-03-31T12:38:13;1.83;;;0.60;;
74614;SDS011;63121;51.458;-0.110;2023-03-31T12:57:45;2.33;;;0.80;;
74614;SDS011;63121;51.458;-0.110;2023-03-31T13:02:50;3.33;;;0.70;;
74614;SDS011;63121;51.458;-0.110;2023-03-31T13:05:44;2.92;;;0.70;;
74614;SDS011;63121;51.458;-0.110;2023-03-31T13:08:47;2.22;;;0.60;;
74614;SDS011;63121;51.458;-0.110;2023-03-31T13:11:14;2.47;;;0.63;;
74614;SDS011;63121;51.458;-0.110;2023-03-31T13:13:43;3.13;;;0.88;;
74614;SDS011;63121;51.458;-0.110;2023-03-31T13:16:18;2.60;;;0.70;;
74614;SDS011;63121;51.458;-0.110;2023-03-31T13:18:49;2.47;;;0.60;;
74614;SDS011;63121;51.458;-0.110;2023-03-31T13:21:16;3.05;;;0.82;;
74614;SDS011;63121;51.458;-0.110;2023-03-31T13:23:43;2.58;;;1.13;;
74614;SDS011;63121;51.458;-0.110;2023-03-31T13:34:26;3.70;;;0.93;;
74614;SDS011;63121;51.458;-0.110;2023-03-31T13:36:58;1.23;;;0.57;;
74614;SDS011;63121;51.458;-0.110;2023-03-31T13:56:48;3.20;;;1.55;;
74614;SDS011;63121;51.458;-0.110;2023-03-31T14:05:29;0.75;;;0.43;;
74614;SDS011;63121;51.458;-0.110;2023-03-31T14:07:58;2.05;;;0.65;;
74614;SDS011;63121;51.458;-0.110;2023-03-31T14:10:31;4.05;;;0.70;;
74614;SDS011;63121;51.458;-0.110;2023-03-31T14:13:08;0.98;;;0.50;;
74614;SDS011;63121;51.458;-0.110;2023-03-31T14:15:49;2.63;;;1.17;;
74614;SDS011;63121;51.458;-0.110;2023-03-31T14:18:27;3.50;;;0.90;;
74614;SDS011;63121;51.458;-0.110;2023-03-31T14:23:51;1.77;;;0.65;;
74614;SDS011;63121;51.458;-0.110;2023-03-31T14:26:39;3.00;;;0.80;;
74614;SDS011;63121;51.458;-0.110;2023-03-31T14:32:32;2.08;;;0.85;;
74614;SDS011;63121;51.458;-0.110;2023-03-31T14:35:17;3.85;;;0.90;;
74614;SDS011;63121;51.458;-0.110;2023-03-31T14:37:54;2.30;;;0.80;;
74614;SDS011;63121;51.458;-0.110;2023-03-31T14:40:21;4.25;;;1.05;;
74614;SDS011;63121;51.458;-0.110;2023-03-31T14:42:48;3.80;;;1.08;;
74614;SDS011;63121;51.458;-0.110;2023-03-31T14:47:57;2.85;;;1.05;;
74614;SDS011;63121;51.458;-0.110;2023-03-31T14:50:27;2.08;;;0.95;;
74614;SDS011;63121;51.458;-0.110;2023-03-31T14:52:56;2.10;;;0.80;;
74614;SDS011;63121;51.458;-0.110;2023-03-31T14:55:23;2.63;;;0.90;;
74614;SDS011;63121;51.458;-0.110;2023-03-31T14:57:52;2.20;;;0.57;;
74614;SDS011;63121;51.458;-0.110;2023-03-31T15:00:26;1.35;;;0.70;;
74614;SDS011;63121;51.458;-0.110;2023-03-31T15:02:55;1.17;;;0.57;;
74614;SDS011;63121;51.458;-0.110;2023-03-31T15:05:27;1.63;;;0.73;;
74614;SDS011;63121;51.458;-0.110;2023-03-31T15:08:04;1.73;;;0.50;;
74614;SDS011;63121;51.458;-0.110;2023-03-31T15:10:32;1.75;;;0.80;;
74614;SDS011;63121;51.458;-0.110;2023-03-31T15:13:06;2.95;;;0.65;;
74614;SDS011;63121;51.458;-0.110;2023-03-31T15:15:33;2.33;;;0.80;;
74614;SDS011;63121;51.458;-0.110;2023-03-31T15:17:59;2.43;;;0.70;;
74614;SDS011;63121;51.458;-0.110;2023-03-31T15:20:29;3.63;;;0.77;;
74614;SDS011;63121;51.458;-0.110;2023-03-31T15:22:58;2.05;;;0.65;;
74614;SDS011;63121;51.458;-0.110;2023-03-31T15:25:29;4.80;;;0.80;;
74614;SDS011;63121;51.458;-0.110;2023-03-31T15:28:00;1.85;;;0.60;;
74614;SDS011;63121;51.458;-0.110;2023-03-31T15:30:30;1.00;;;0.50;;
74614;SDS011;63121;51.458;-0.110;2023-03-31T15:32:56;0.95;;;0.50;;
74614;SDS011;63121;51.458;-0.110;2023-03-31T15:35:24;2.13;;;0.70;;
74614;SDS011;63121;51.458;-0.110;2023-03-31T15:37:55;0.95;;;0.47;;
74614;SDS011;63121;51.458;-0.110;2023-03-31T15:40:23;0.40;;;0.30;;
74614;SDS011;63121;51.458;-0.110;2023-03-31T15:42:55;2.38;;;0.60;;
74614;SDS011;63121;51.458;-0.110;2023-03-31T15:45:43;0.65;;;0.32;;
74614;SDS011;63121;51.458;-0.110;2023-03-31T15:48:13;0.75;;;0.30;;
74614;SDS011;63121;51.458;-0.110;2023-03-31T15:50:43;0.60;;;0.32;;
74614;SDS011;63121;51.458;-0.110;2023-03-31T15:53:20;0.25;;;0.20;;
74614;SDS011;63121;51.458;-0.110;2023-03-31T15:55:53;0.22;;;0.17;;
74614;SDS011;63121;51.458;-0.110;2023-03-31T15:58:22;0.55;;;0.28;;
74614;SDS011;63121;51.458;-0.110;2023-03-31T16:01:09;0.90;;;0.43;;
74614;SDS011;63121;51.458;-0.110;2023-03-31T16:03:36;1.75;;;0.43;;
74614;SDS011;63121;51.458;-0.110;2023-03-31T16:06:18;0.30;;;0.30;;
74614;SDS011;63121;51.458;-0.110;2023-03-31T16:08:52;3.03;;;0.60;;
74614;SDS011;63121;51.458;-0.110;2023-03-31T16:11:22;1.00;;;0.40;;
74614;SDS011;63121;51.458;-0.110;2023-03-31T16:13:59;0.32;;;0.30;;
74614;SDS011;63121;51.458;-0.110;2023-03-31T16:16:29;0.82;;;0.40;;
74614;SDS011;63121;51.458;-0.110;2023-03-31T16:19:00;2.38;;;0.55;;
74614;SDS011;63121;51.458;-0.110;2023-03-31T16:21:29;1.15;;;0.47;;
74614;SDS011;63121;51.458;-0.110;2023-03-31T16:24:01;0.93;;;0.40;;
74614;SDS011;63121;51.458;-0.110;2023-03-31T16:26:27;1.60;;;0.30;;
74614;SDS011;63121;51.458;-0.110;2023-03-31T16:28:53;0.75;;;0.55;;
74614;SDS011;63121;51.458;-0.110;2023-03-31T16:34:00;0.17;;;0.13;;
74614;SDS011;63121;51.458;-0.110;2023-03-31T16:36:30;1.10;;;0.22;;
74614;SDS011;63121;51.458;-0.110;2023-03-31T16:38:55;1.43;;;0.33;;
74614;SDS011;63121;51.458;-0.110;2023-03-31T16:41:23;0.45;;;0.28;;
74614;SDS011;63121;51.458;-0.110;2023-03-31T16:43:51;2.22;;;0.40;;
74614;SDS011;63121;51.458;-0.110;2023-03-31T16:48:43;0.85;;;0.43;;
74614;SDS011;63121;51.458;-0.110;2023-03-31T16:51:09;0.28;;;0.28;;
74614;SDS011;63121;51.458;-0.110;2023-03-31T16:53:35;1.15;;;0.50;;
74614;SDS011;63121;51.458;-0.110;2023-03-31T16:56:01;2.33;;;0.65;;
74614;SDS011;63121;51.458;-0.110;2023-03-31T16:58:33;2.40;;;0.65;;
74614;SDS011;63121;51.458;-0.110;2023-03-31T17:03:26;0.63;;;0.40;;
74614;SDS011;63121;51.458;-0.110;2023-03-31T17:05:52;0.82;;;0.47;;
74614;SDS011;63121;51.458;-0.110;2023-03-31T17:08:20;1.38;;;0.50;;
74614;SDS011;63121;51.458;-0.110;2023-03-31T17:10:51;1.85;;;0.70;;
74614;SDS011;63121;51.458;-0.110;2023-03-31T17:13:18;0.50;;;0.50;;
74614;SDS011;63121;51.458;-0.110;2023-03-31T17:15:44;0.50;;;0.50;;
74614;SDS011;63121;51.458;-0.110;2023-03-31T17:18:10;1.35;;;0.60;;
74614;SDS011;63121;51.458;-0.110;2023-03-31T17:20:35;0.75;;;0.45;;
74614;SDS011;63121;51.458;-0.110;2023-03-31T17:23:01;2.17;;;0.70;;
74614;SDS011;63121;51.458;-0.110;2023-03-31T17:25:26;1.25;;;0.60;;
74614;SDS011;63121;51.458;-0.110;2023-03-31T17:27:52;1.45;;;0.65;;
74614;SDS011;63121;51.458;-0.110;2023-03-31T17:30:19;1.55;;;0.47;;
74614;SDS011;63121;51.458;-0.110;2023-03-31T17:32:46;2.13;;;0.70;;
74614;SDS011;63121;51.458;-0.110;2023-03-31T17:35:12;1.63;;;0.50;;
74614;SDS011;63121;51.458;-0.110;2023-03-31T17:37:44;1.25;;;0.60;;
74614;SDS011;63121;51.458;-0.110;2023-03-31T17:40:10;1.65;;;0.63;;
74614;SDS011;63121;51.458;-0.110;2023-03-31T17:42:36;1.33;;;0.65;;
74614;SDS011;63121;51.458;-0.110;2023-03-31T17:45:02;1.83;;;0.80;;
74614;SDS011;63121;51.458;-0.110;2023-03-31T17:47:29;0.70;;;0.60;;
74614;SDS011;63121;51.458;-0.110;2023-03-31T17:49:54;4.30;;;0.90;;
74614;SDS011;63121;51.458;-0.110;2023-03-31T17:52:20;2.08;;;0.90;;
74614;SDS011;63121;51.458;-0.110;2023-03-31T17:54:46;4.88;;;1.00;;